createdAt,value
2018-07-31T00:00:28.318Z,26.40
2018-07-31T00:02:56.479Z,26.40
2018-07-31T00:05:24.614Z,26.30
2018-07-31T00:07:52.854Z,26.40
2018-07-31T00:10:20.977Z,26.30
2018-07-31T00:12:49.106Z,26.40
2018-07-31T00:15:17.229Z,26.40
2018-07-31T00:17:45.384Z,26.40
2018-07-31T00:20:13.596Z,26.40
2018-07-31T00:22:41.737Z,26.40
2018-07-31T00:25:09.866Z,26.30
2018-07-31T00:27:38.002Z,26.30
2018-07-31T00:30:07.595Z,26.30
2018-07-31T00:32:35.724Z,26.30
2018-07-31T00:35:03.884Z,26.30
2018-07-31T00:37:32.013Z,26.30
2018-07-31T00:40:00.125Z,26.30
2018-07-31T00:42:28.263Z,26.30
2018-07-31T00:44:56.388Z,26.30
2018-07-31T00:47:24.526Z,26.20
2018-07-31T00:49:52.645Z,26.20
2018-07-31T00:52:20.797Z,26.20
2018-07-31T00:57:16.834Z,26.10
2018-07-31T00:59:44.962Z,26.10
2018-07-31T01:02:13.090Z,26.10
2018-07-31T01:04:41.238Z,26.10
2018-07-31T01:07:09.366Z,26.10
2018-07-31T01:09:37.539Z,26.10
2018-07-31T01:12:05.671Z,26.10
2018-07-31T01:14:33.801Z,26.00
2018-07-31T01:17:01.922Z,26.00
2018-07-31T01:19:30.066Z,26.00
2018-07-31T01:21:58.226Z,26.00
2018-07-31T01:24:26.334Z,25.90
2018-07-31T01:26:54.490Z,25.90
2018-07-31T01:29:22.650Z,25.90
2018-07-31T01:31:50.775Z,25.90
2018-07-31T01:34:18.910Z,25.90
2018-07-31T01:36:47.044Z,25.80
2018-07-31T01:39:15.197Z,25.80
2018-07-31T01:41:43.346Z,25.80
2018-07-31T01:44:11.500Z,25.80
2018-07-31T01:46:39.634Z,25.80
2018-07-31T01:49:07.770Z,25.70
2018-07-31T01:54:03.802Z,25.70
2018-07-31T01:56:31.980Z,25.70
2018-07-31T01:59:00.093Z,25.70
2018-07-31T02:01:28.233Z,25.60
2018-07-31T02:03:56.375Z,25.60
2018-07-31T02:06:27.534Z,25.60
2018-07-31T02:08:56.831Z,25.60
2018-07-31T02:11:24.970Z,25.60
2018-07-31T02:13:53.689Z,25.60
2018-07-31T02:16:22.071Z,25.50
2018-07-31T02:18:50.196Z,25.50
2018-07-31T02:21:18.331Z,25.50
2018-07-31T02:23:46.463Z,25.50
2018-07-31T02:26:14.585Z,25.40
2018-07-31T02:28:42.836Z,25.40
2018-07-31T02:31:10.922Z,25.40
2018-07-31T02:33:39.035Z,25.40
2018-07-31T02:36:07.234Z,25.30
2018-07-31T02:38:35.365Z,25.30
2018-07-31T02:41:03.506Z,25.30
2018-07-31T02:43:31.655Z,25.20
2018-07-31T02:45:59.783Z,25.20
2018-07-31T02:48:27.917Z,25.20
2018-07-31T02:50:56.058Z,25.20
2018-07-31T02:53:24.213Z,25.10
2018-07-31T02:55:52.347Z,25.10
2018-07-31T02:58:20.588Z,25.10
2018-07-31T03:00:48.630Z,25.10
2018-07-31T03:03:16.775Z,25.00
2018-07-31T03:05:44.913Z,25.00
2018-07-31T03:08:13.132Z,25.00
2018-07-31T03:10:41.327Z,25.00
2018-07-31T03:13:09.463Z,24.90
2018-07-31T03:15:37.615Z,24.90
2018-07-31T03:18:05.770Z,24.90
2018-07-31T03:20:33.946Z,24.90
2018-07-31T03:23:02.092Z,24.80
2018-07-31T03:25:30.258Z,24.80
2018-07-31T03:27:58.398Z,24.80
2018-07-31T03:30:26.529Z,24.80
2018-07-31T03:32:54.673Z,24.70
2018-07-31T03:35:22.810Z,24.70
2018-07-31T03:37:50.969Z,24.70
2018-07-31T03:40:19.130Z,24.70
2018-07-31T03:42:47.289Z,24.60
2018-07-31T03:45:15.408Z,24.60
2018-07-31T03:47:43.547Z,24.60
2018-07-31T03:50:11.707Z,24.50
2018-07-31T03:52:39.838Z,24.50
2018-07-31T03:55:07.998Z,24.50
2018-07-31T03:57:36.141Z,24.50
2018-07-31T04:00:05.031Z,24.40
2018-07-31T04:02:33.157Z,24.40
2018-07-31T04:07:29.300Z,24.40
2018-07-31T04:09:57.456Z,24.40
2018-07-31T04:12:25.599Z,24.30
2018-07-31T04:14:53.746Z,24.30
2018-07-31T04:17:21.885Z,24.30
2018-07-31T04:19:50.064Z,24.30
2018-07-31T04:22:18.197Z,24.20
2018-07-31T04:24:46.358Z,24.20
2018-07-31T04:27:14.493Z,24.20
2018-07-31T04:29:42.670Z,24.20
2018-07-31T04:32:10.846Z,24.20
2018-07-31T04:34:39.000Z,24.10
2018-07-31T04:37:07.147Z,24.10
2018-07-31T04:39:35.366Z,24.10
2018-07-31T04:42:03.506Z,24.10
2018-07-31T04:44:31.646Z,24.10
2018-07-31T04:46:59.772Z,24.10
2018-07-31T04:49:27.922Z,24.10
2018-07-31T04:51:56.083Z,24.00
2018-07-31T04:54:24.230Z,24.00
2018-07-31T04:56:52.476Z,24.00
2018-07-31T04:59:20.534Z,24.00
2018-07-31T05:01:48.759Z,24.00
2018-07-31T05:04:16.942Z,24.00
2018-07-31T05:06:45.039Z,24.00
2018-07-31T05:09:13.421Z,24.00
2018-07-31T05:11:41.894Z,24.00
2018-07-31T05:14:10.046Z,24.00
2018-07-31T05:16:38.191Z,24.00
2018-07-31T05:19:06.327Z,24.00
2018-07-31T05:21:34.474Z,24.00
2018-07-31T05:24:02.625Z,24.00
2018-07-31T05:26:30.774Z,24.00
2018-07-31T05:28:58.934Z,24.10
2018-07-31T05:31:27.082Z,24.10
2018-07-31T05:33:55.222Z,24.10
2018-07-31T05:36:23.361Z,24.10
2018-07-31T05:38:51.658Z,24.10
2018-07-31T05:41:19.790Z,24.10
2018-07-31T05:43:47.954Z,24.20
2018-07-31T05:48:43.985Z,24.20
2018-07-31T05:51:12.115Z,24.20
2018-07-31T05:53:40.253Z,24.20
2018-07-31T05:56:08.406Z,24.20
2018-07-31T05:58:36.558Z,24.20
2018-07-31T06:01:04.751Z,24.30
2018-07-31T06:03:32.916Z,24.30
2018-07-31T06:06:01.029Z,24.30
2018-07-31T06:08:29.162Z,24.30
2018-07-31T06:10:57.297Z,24.40
2018-07-31T06:13:25.449Z,24.40
2018-07-31T06:15:53.597Z,24.40
2018-07-31T06:18:21.737Z,24.40
2018-07-31T06:20:49.902Z,24.40
2018-07-31T06:23:18.039Z,24.40
2018-07-31T06:25:46.170Z,24.50
2018-07-31T06:28:14.303Z,24.50
2018-07-31T06:30:42.474Z,24.50
2018-07-31T06:33:10.601Z,24.50
2018-07-31T06:35:38.729Z,24.60
2018-07-31T06:38:06.871Z,24.60
2018-07-31T06:40:35.001Z,24.70
2018-07-31T06:43:03.163Z,24.70
2018-07-31T06:45:31.337Z,24.70
2018-07-31T06:47:59.495Z,24.70
2018-07-31T06:50:27.633Z,24.80
2018-07-31T06:52:55.844Z,24.80
2018-07-31T06:55:23.977Z,24.80
2018-07-31T06:57:52.115Z,24.90
2018-07-31T07:00:20.253Z,24.90
2018-07-31T07:02:48.383Z,25.00
2018-07-31T07:05:16.518Z,25.00
2018-07-31T07:07:44.667Z,25.10
2018-07-31T07:10:12.886Z,25.10
2018-07-31T07:12:41.021Z,25.20
2018-07-31T07:15:09.163Z,25.20
2018-07-31T07:17:37.315Z,25.30
2018-07-31T07:20:05.458Z,25.30
2018-07-31T07:22:33.613Z,25.40
2018-07-31T07:25:01.755Z,25.40
2018-07-31T07:27:29.878Z,25.50
2018-07-31T07:29:58.037Z,25.60
2018-07-31T07:32:26.201Z,25.60
2018-07-31T07:34:54.334Z,25.60
2018-07-31T07:37:22.554Z,25.70
2018-07-31T07:39:50.685Z,25.80
2018-07-31T07:42:18.959Z,25.80
2018-07-31T07:44:47.149Z,25.90
2018-07-31T07:47:15.292Z,25.90
2018-07-31T07:49:43.489Z,26.00
2018-07-31T07:54:39.590Z,26.10
2018-07-31T07:57:07.829Z,26.10
2018-07-31T07:59:36.261Z,26.20
2018-07-31T08:02:04.407Z,26.20
2018-07-31T08:04:32.566Z,26.30
2018-07-31T08:07:00.693Z,26.30
2018-07-31T08:09:28.842Z,26.40
2018-07-31T08:11:57.046Z,26.40
2018-07-31T08:14:25.177Z,26.40
2018-07-31T08:16:53.365Z,26.50
2018-07-31T08:19:21.506Z,26.50
2018-07-31T08:21:49.653Z,26.60
2018-07-31T08:24:17.798Z,26.60
2018-07-31T08:26:45.940Z,26.70
2018-07-31T08:29:14.071Z,26.70
2018-07-31T08:34:10.141Z,26.80
2018-07-31T08:36:38.307Z,26.80
2018-07-31T08:39:08.135Z,26.90
2018-07-31T08:41:36.561Z,27.00
2018-07-31T08:44:05.119Z,27.00
2018-07-31T08:46:33.260Z,27.10
2018-07-31T08:49:01.428Z,27.20
2018-07-31T08:51:29.854Z,27.20
2018-07-31T08:53:58.006Z,27.30
2018-07-31T08:56:26.146Z,27.30
2018-07-31T08:58:54.289Z,27.40
2018-07-31T09:01:22.414Z,27.50
2018-07-31T09:03:50.549Z,27.60
2018-07-31T09:06:18.690Z,27.60
2018-07-31T09:08:46.892Z,27.70
2018-07-31T09:11:15.077Z,27.80
2018-07-31T09:13:43.242Z,27.80
2018-07-31T09:16:11.399Z,27.90
2018-07-31T09:18:39.528Z,27.90
2018-07-31T09:21:07.705Z,28.00
2018-07-31T09:23:35.826Z,28.00
2018-07-31T09:26:03.994Z,28.10
2018-07-31T09:28:32.130Z,28.10
2018-07-31T09:31:05.770Z,28.10
2018-07-31T09:33:33.777Z,28.20
2018-07-31T09:36:01.944Z,28.20
2018-07-31T09:38:30.097Z,28.20
2018-07-31T09:43:26.170Z,28.30
2018-07-31T09:45:54.308Z,28.30
2018-07-31T09:48:22.446Z,28.30
2018-07-31T09:50:50.590Z,28.40
2018-07-31T09:53:18.733Z,28.40
2018-07-31T09:55:46.879Z,28.40
2018-07-31T09:58:15.036Z,28.40
2018-07-31T10:00:48.656Z,28.40
2018-07-31T10:03:16.794Z,28.50
2018-07-31T10:05:44.927Z,28.50
2018-07-31T10:08:17.311Z,28.50
2018-07-31T10:10:45.472Z,28.50
2018-07-31T10:13:13.606Z,28.60
2018-07-31T10:15:41.750Z,28.60
2018-07-31T10:18:09.904Z,28.70
2018-07-31T10:20:38.022Z,28.80
2018-07-31T10:23:06.210Z,28.90
2018-07-31T10:25:34.354Z,28.90
2018-07-31T10:28:02.506Z,28.90
2018-07-31T10:30:30.655Z,28.90
2018-07-31T10:32:58.778Z,29.00
2018-07-31T10:35:26.929Z,29.00
2018-07-31T10:37:55.095Z,29.00
2018-07-31T10:40:23.208Z,29.10
2018-07-31T10:42:51.346Z,29.20
2018-07-31T10:45:19.528Z,29.20
2018-07-31T10:47:47.713Z,29.20
2018-07-31T10:50:15.881Z,29.30
2018-07-31T10:52:44.103Z,29.30
2018-07-31T10:55:12.251Z,29.30
2018-07-31T10:57:40.653Z,29.30
2018-07-31T11:00:09.105Z,29.30
2018-07-31T11:02:37.270Z,29.20
2018-07-31T11:05:05.470Z,29.30
2018-07-31T11:07:33.605Z,29.30
2018-07-31T11:10:01.876Z,29.30
2018-07-31T11:12:30.028Z,29.30
2018-07-31T11:14:58.223Z,29.30
2018-07-31T11:17:26.373Z,29.40
2018-07-31T11:19:54.548Z,29.40
2018-07-31T11:22:22.662Z,29.50
2018-07-31T11:24:50.777Z,29.50
2018-07-31T11:27:18.925Z,29.60
2018-07-31T11:29:47.150Z,29.60
2018-07-31T11:32:15.312Z,29.70
2018-07-31T11:34:43.448Z,29.70
2018-07-31T11:37:11.578Z,29.80
2018-07-31T11:39:39.701Z,29.80
2018-07-31T11:42:07.839Z,29.90
2018-07-31T11:44:35.995Z,29.90
2018-07-31T11:47:04.124Z,30.10
2018-07-31T11:49:32.302Z,30.10
2018-07-31T11:52:00.416Z,30.10
2018-07-31T11:54:28.556Z,30.10
2018-07-31T11:56:56.694Z,30.10
2018-07-31T11:59:24.838Z,30.10
2018-07-31T12:01:52.974Z,30.10
2018-07-31T12:04:21.163Z,30.20
2018-07-31T12:06:49.284Z,30.20
2018-07-31T12:09:17.440Z,30.20
2018-07-31T12:11:45.575Z,30.30
2018-07-31T12:14:14.124Z,30.30
2018-07-31T12:16:42.417Z,30.40
2018-07-31T12:19:10.569Z,30.40
2018-07-31T12:21:38.782Z,30.50
2018-07-31T12:24:06.932Z,30.50
2018-07-31T12:26:35.076Z,30.60
2018-07-31T12:29:03.202Z,30.60
2018-07-31T12:31:31.358Z,30.70
2018-07-31T12:33:59.494Z,30.70
2018-07-31T12:36:27.634Z,30.80
2018-07-31T12:38:55.777Z,30.80
2018-07-31T12:41:23.904Z,30.80
2018-07-31T12:43:52.031Z,30.80
2018-07-31T12:46:20.179Z,30.80
2018-07-31T12:48:48.310Z,30.80
2018-07-31T12:51:16.545Z,30.80
2018-07-31T12:53:44.713Z,30.80
2018-07-31T12:56:12.872Z,30.80
2018-07-31T12:58:41.010Z,30.80
2018-07-31T13:01:09.167Z,30.80
2018-07-31T13:03:37.354Z,30.80
2018-07-31T13:06:05.548Z,30.80
2018-07-31T13:08:33.680Z,30.90
2018-07-31T13:11:01.813Z,30.90
2018-07-31T13:13:29.948Z,30.90
2018-07-31T13:15:58.106Z,30.90
2018-07-31T13:18:26.241Z,30.90
2018-07-31T13:20:54.390Z,30.90
2018-07-31T13:23:22.536Z,30.80
2018-07-31T13:25:50.680Z,30.80
2018-07-31T13:28:18.822Z,30.80
2018-07-31T13:30:47.002Z,30.70
2018-07-31T13:33:15.094Z,30.70
2018-07-31T13:35:43.229Z,30.70
2018-07-31T13:38:11.363Z,30.70
2018-07-31T13:40:39.494Z,30.80
2018-07-31T13:43:07.698Z,30.80
2018-07-31T13:45:35.946Z,30.80
2018-07-31T13:48:04.314Z,30.80
2018-07-31T13:50:33.494Z,30.80
2018-07-31T13:53:01.635Z,30.80
2018-07-31T13:55:29.837Z,30.90
2018-07-31T13:57:58.788Z,30.90
2018-07-31T14:00:27.138Z,30.80
2018-07-31T14:02:55.288Z,30.80
2018-07-31T14:05:23.437Z,30.90
2018-07-31T14:07:52.592Z,30.90
2018-07-31T14:10:20.734Z,30.90
2018-07-31T14:12:48.842Z,30.90
2018-07-31T14:15:16.979Z,30.90
2018-07-31T14:17:45.106Z,30.90
2018-07-31T14:20:13.245Z,30.90
2018-07-31T14:22:41.396Z,30.90
2018-07-31T14:25:09.523Z,30.90
2018-07-31T14:27:37.650Z,30.90
2018-07-31T14:30:06.249Z,31.00
2018-07-31T14:32:34.381Z,30.90
2018-07-31T14:35:02.501Z,30.90
2018-07-31T14:37:30.786Z,30.90
2018-07-31T14:39:58.913Z,30.80
2018-07-31T14:42:27.074Z,30.80
2018-07-31T14:44:55.187Z,30.80
2018-07-31T14:47:23.334Z,30.80
2018-07-31T14:49:51.470Z,30.80
2018-07-31T14:52:19.642Z,30.70
2018-07-31T14:54:47.789Z,30.70
2018-07-31T14:57:16.005Z,30.70
2018-07-31T14:59:44.150Z,30.60
2018-07-31T15:04:40.289Z,30.50
2018-07-31T15:07:08.499Z,30.50
2018-07-31T15:09:36.668Z,30.40
2018-07-31T15:12:04.854Z,30.50
2018-07-31T15:14:33.018Z,30.50
2018-07-31T15:17:01.159Z,30.50
2018-07-31T15:19:29.340Z,30.50
2018-07-31T15:21:57.523Z,30.50
2018-07-31T15:24:25.710Z,30.50
2018-07-31T15:26:53.862Z,30.50
2018-07-31T15:29:22.010Z,30.50
2018-07-31T15:31:50.142Z,30.60
2018-07-31T15:34:18.276Z,30.50
2018-07-31T15:36:46.418Z,30.50
2018-07-31T15:39:14.589Z,30.50
2018-07-31T15:41:42.762Z,30.50
2018-07-31T15:44:11.090Z,30.60
2018-07-31T15:46:39.238Z,30.60
2018-07-31T15:49:07.381Z,30.60
2018-07-31T15:51:35.518Z,30.50
2018-07-31T15:54:03.841Z,30.50
2018-07-31T15:56:31.970Z,30.50
2018-07-31T15:59:00.154Z,30.40
2018-07-31T16:01:29.037Z,30.40
2018-07-31T16:03:57.561Z,30.30
2018-07-31T16:06:25.720Z,30.30
2018-07-31T16:08:53.951Z,30.30
2018-07-31T16:11:22.086Z,30.20
2018-07-31T16:13:50.228Z,30.20
2018-07-31T16:16:18.369Z,30.20
2018-07-31T16:18:46.550Z,30.10
2018-07-31T16:21:14.686Z,30.20
2018-07-31T16:23:42.835Z,30.10
2018-07-31T16:26:10.975Z,30.10
2018-07-31T16:28:39.085Z,30.10
2018-07-31T16:31:07.233Z,30.10
2018-07-31T16:33:35.419Z,30.10
2018-07-31T16:36:03.570Z,30.10
2018-07-31T16:38:31.783Z,30.10
2018-07-31T16:40:59.925Z,30.10
2018-07-31T16:43:28.074Z,30.10
2018-07-31T16:45:56.276Z,30.20
2018-07-31T16:50:52.260Z,30.20
2018-07-31T16:53:20.428Z,30.20
2018-07-31T16:55:48.586Z,30.20
2018-07-31T16:58:17.364Z,30.20
2018-07-31T17:00:48.129Z,30.20
2018-07-31T17:03:16.263Z,30.10
2018-07-31T17:05:44.432Z,30.20
2018-07-31T17:08:12.570Z,30.10
2018-07-31T17:10:40.713Z,30.10
2018-07-31T17:13:08.902Z,30.00
2018-07-31T17:15:37.078Z,30.00
2018-07-31T17:18:05.217Z,29.90
2018-07-31T17:20:33.423Z,29.90
2018-07-31T17:23:01.566Z,29.80
2018-07-31T17:25:29.701Z,29.70
2018-07-31T17:27:57.833Z,29.60
2018-07-31T17:30:25.991Z,29.60
2018-07-31T17:32:54.134Z,29.50
2018-07-31T17:35:22.389Z,29.40
2018-07-31T17:37:50.731Z,29.40
2018-07-31T17:40:19.111Z,29.30
2018-07-31T17:42:47.278Z,29.20
2018-07-31T17:45:15.485Z,29.20
2018-07-31T17:47:43.619Z,29.10
2018-07-31T17:50:11.784Z,29.10
2018-07-31T17:52:39.947Z,29.00
2018-07-31T17:55:08.118Z,29.00
2018-07-31T17:57:36.267Z,28.90
2018-07-31T18:00:05.040Z,28.90
2018-07-31T18:02:33.181Z,28.80
2018-07-31T18:05:01.335Z,28.80
2018-07-31T18:07:29.534Z,28.70
2018-07-31T18:09:57.702Z,28.70
2018-07-31T18:12:25.853Z,28.60
2018-07-31T18:14:53.983Z,28.60
2018-07-31T18:17:22.155Z,28.50
2018-07-31T18:19:50.314Z,28.50
2018-07-31T18:22:18.425Z,28.50
2018-07-31T18:24:46.589Z,28.40
2018-07-31T18:27:14.713Z,28.40
2018-07-31T18:29:42.871Z,28.30
2018-07-31T18:32:11.018Z,28.30
2018-07-31T18:34:39.197Z,28.30
2018-07-31T18:37:07.336Z,28.20
2018-07-31T18:39:35.492Z,28.20
2018-07-31T18:42:03.622Z,28.20
2018-07-31T18:44:31.757Z,28.10
2018-07-31T18:46:59.898Z,28.10
2018-07-31T18:49:28.038Z,28.00
2018-07-31T18:51:56.199Z,28.00
2018-07-31T18:54:24.334Z,27.90
2018-07-31T18:56:52.457Z,27.90
2018-07-31T18:59:20.601Z,27.90
2018-07-31T19:01:48.763Z,27.90
2018-07-31T19:04:16.893Z,27.90
2018-07-31T19:06:45.146Z,27.80
2018-07-31T19:09:13.243Z,27.80
2018-07-31T19:11:42.553Z,27.70
2018-07-31T19:14:10.778Z,27.70
2018-07-31T19:16:38.913Z,27.70
2018-07-31T19:19:07.086Z,27.60
2018-07-31T19:21:35.234Z,27.60
2018-07-31T19:24:03.350Z,27.50
2018-07-31T19:26:31.506Z,27.50
2018-07-31T19:28:59.637Z,27.50
2018-07-31T19:31:27.827Z,27.40
2018-07-31T19:33:56.094Z,27.40
2018-07-31T19:36:24.189Z,27.30
2018-07-31T19:38:52.381Z,27.30
2018-07-31T19:41:20.559Z,27.20
2018-07-31T19:43:48.688Z,27.20
2018-07-31T19:46:16.905Z,27.10
2018-07-31T19:48:44.975Z,27.10
2018-07-31T19:51:13.123Z,27.10
2018-07-31T19:53:41.256Z,27.00
2018-07-31T19:56:09.385Z,26.90
2018-07-31T19:58:37.525Z,26.90
2018-07-31T20:01:05.666Z,26.90
2018-07-31T20:03:33.809Z,26.90
2018-07-31T20:06:01.983Z,26.80
2018-07-31T20:08:30.126Z,26.80
2018-07-31T20:10:58.266Z,26.80
2018-07-31T20:13:26.401Z,26.80
2018-07-31T20:15:54.527Z,26.70
2018-07-31T20:18:22.665Z,26.70
2018-07-31T20:20:50.826Z,26.70
2018-07-31T20:23:18.929Z,26.60
2018-07-31T20:25:47.052Z,26.60
2018-07-31T20:28:15.173Z,26.60
2018-07-31T20:30:43.307Z,26.50
2018-07-31T20:33:11.402Z,26.50
2018-07-31T20:35:39.534Z,26.50
2018-07-31T20:38:07.672Z,26.50
2018-07-31T20:40:35.813Z,26.40
2018-07-31T20:43:03.959Z,26.40
2018-07-31T20:45:32.082Z,26.40
2018-07-31T20:48:00.210Z,26.30
2018-07-31T20:50:28.338Z,26.30
2018-07-31T20:52:56.474Z,26.30
2018-07-31T20:55:24.633Z,26.20
2018-07-31T20:57:52.780Z,26.20
2018-07-31T21:00:20.926Z,26.20
2018-07-31T21:02:49.041Z,26.10
2018-07-31T21:05:17.177Z,26.10
2018-07-31T21:07:45.308Z,26.10
2018-07-31T21:10:13.437Z,26.00
2018-07-31T21:12:41.570Z,26.00
2018-07-31T21:15:09.722Z,26.00
2018-07-31T21:17:37.829Z,25.90
2018-07-31T21:20:05.956Z,25.90
2018-07-31T21:22:34.090Z,25.90
2018-07-31T21:25:02.226Z,25.90
2018-07-31T21:29:58.274Z,25.80
2018-07-31T21:32:26.450Z,25.80
2018-07-31T21:34:54.610Z,25.70
2018-07-31T21:37:22.735Z,25.70
2018-07-31T21:39:50.873Z,25.70
2018-07-31T21:42:19.002Z,25.60
2018-07-31T21:44:47.130Z,25.60
2018-07-31T21:47:15.238Z,25.60
2018-07-31T21:49:43.369Z,25.60
2018-07-31T21:52:11.578Z,25.50
2018-07-31T21:54:39.748Z,25.50
2018-07-31T21:57:07.930Z,25.50
2018-07-31T21:59:36.142Z,25.40
2018-07-31T22:02:04.237Z,25.40
2018-07-31T22:04:32.346Z,25.40
2018-07-31T22:07:00.470Z,25.30
2018-07-31T22:09:31.073Z,25.30
2018-07-31T22:11:59.638Z,25.30
2018-07-31T22:14:28.136Z,25.20
2018-07-31T22:16:56.315Z,25.20
2018-07-31T22:19:24.454Z,25.20
2018-07-31T22:21:52.587Z,25.20
2018-07-31T22:24:20.706Z,25.20
2018-07-31T22:26:48.850Z,25.10
2018-07-31T22:29:16.970Z,25.10
2018-07-31T22:31:45.105Z,25.10
2018-07-31T22:34:13.286Z,25.10
2018-07-31T22:36:41.364Z,25.00
2018-07-31T22:39:10.682Z,25.00
2018-07-31T22:41:38.818Z,25.00
2018-07-31T22:44:06.979Z,25.00
2018-07-31T22:46:35.120Z,25.00
2018-07-31T22:51:31.230Z,24.90
2018-07-31T22:53:59.341Z,24.90
2018-07-31T22:56:27.474Z,24.90
2018-07-31T22:58:55.626Z,24.80
2018-07-31T23:01:23.753Z,24.80
2018-07-31T23:03:51.869Z,24.70
2018-07-31T23:06:20.036Z,24.70
2018-07-31T23:08:48.167Z,24.70
2018-07-31T23:11:16.297Z,24.60
2018-07-31T23:13:44.420Z,24.60
2018-07-31T23:16:12.589Z,24.50
2018-07-31T23:21:08.696Z,24.40
2018-07-31T23:23:36.787Z,24.40
2018-07-31T23:26:04.927Z,24.30
2018-07-31T23:28:33.117Z,24.30
2018-07-31T23:31:01.208Z,24.20
2018-07-31T23:33:29.337Z,24.10
2018-07-31T23:35:57.482Z,24.10
2018-07-31T23:38:25.622Z,24.10
2018-07-31T23:40:53.746Z,24.00
2018-07-31T23:43:21.876Z,23.90
2018-07-31T23:45:50.001Z,23.90
2018-07-31T23:48:18.129Z,23.80
2018-07-31T23:50:46.267Z,23.80
2018-07-31T23:53:14.385Z,23.70
2018-07-31T23:55:42.527Z,23.70
2018-07-31T23:58:10.669Z,23.70
